createdAt,value
2019-01-10T00:04:21.980Z,98.39
2019-01-10T00:09:41.360Z,98.46
2019-01-10T00:15:00.893Z,98.42
2019-01-10T00:20:20.536Z,98.60
2019-01-10T00:25:40.176Z,98.68
2019-01-10T00:31:00.745Z,98.88
2019-01-10T00:36:20.579Z,99.15
2019-01-10T00:41:41.127Z,99.37
2019-01-10T00:47:00.144Z,99.46
2019-01-10T00:52:19.808Z,99.64
2019-01-10T00:57:39.504Z,99.79
2019-01-10T01:02:59.191Z,99.87
2019-01-10T01:08:20.209Z,99.98
2019-01-10T01:13:39.840Z,99.94
2019-01-10T01:18:59.367Z,100.00
2019-01-10T01:24:19.425Z,100.00
2019-01-10T01:29:39.228Z,100.00
2019-01-10T01:34:58.984Z,100.00
2019-01-10T01:40:19.119Z,100.00
2019-01-10T01:45:38.692Z,100.00
2019-01-10T01:50:58.625Z,100.00
2019-01-10T01:56:17.663Z,100.00
2019-01-10T02:01:36.988Z,100.00
2019-01-10T02:06:56.241Z,100.00
2019-01-10T02:12:15.976Z,100.00
2019-01-10T02:17:36.433Z,100.00
2019-01-10T02:22:56.159Z,100.00
2019-01-10T02:28:15.288Z,100.00
2019-01-10T02:33:35.923Z,100.00
2019-01-10T02:38:55.796Z,100.00
2019-01-10T02:44:15.209Z,100.00
2019-01-10T02:49:34.868Z,100.00
2019-01-10T02:54:54.928Z,100.00
2019-01-10T03:00:21.058Z,100.00
2019-01-10T03:05:41.008Z,100.00
2019-01-10T03:11:01.243Z,100.00
2019-01-10T03:16:20.293Z,100.00
2019-01-10T03:21:39.396Z,100.00
2019-01-10T03:26:59.053Z,100.00
2019-01-10T03:32:18.846Z,100.00
2019-01-10T03:37:39.076Z,100.00
2019-01-10T03:42:58.621Z,100.00
2019-01-10T03:48:18.217Z,100.00
2019-01-10T03:53:37.637Z,100.00
2019-01-10T03:58:56.636Z,100.00
2019-01-10T04:04:16.158Z,100.00
2019-01-10T04:09:35.541Z,100.00
2019-01-10T04:14:54.999Z,100.00
2019-01-10T04:20:16.556Z,100.00
2019-01-10T04:25:35.658Z,100.00
2019-01-10T04:30:55.610Z,100.00
2019-01-10T04:36:15.482Z,100.00
2019-01-10T04:41:34.948Z,100.00
2019-01-10T04:46:54.941Z,100.00
2019-01-10T04:52:15.215Z,100.00
2019-01-10T04:57:34.340Z,100.00
2019-01-10T05:02:53.851Z,100.00
2019-01-10T05:08:13.721Z,100.00
2019-01-10T05:13:32.980Z,100.00
2019-01-10T05:18:53.211Z,100.00
2019-01-10T05:24:12.920Z,100.00
2019-01-10T05:29:32.342Z,100.00
2019-01-10T05:34:52.219Z,100.00
2019-01-10T05:40:11.694Z,100.00
2019-01-10T05:45:31.760Z,100.00
2019-01-10T05:50:53.181Z,100.00
2019-01-10T05:56:15.593Z,100.00
2019-01-10T06:01:34.880Z,100.00
2019-01-10T06:06:53.597Z,100.00
2019-01-10T06:12:13.425Z,100.00
2019-01-10T06:17:33.206Z,100.00
2019-01-10T06:22:52.598Z,100.00
2019-01-10T06:28:11.932Z,100.00
2019-01-10T06:33:32.023Z,100.00
2019-01-10T06:38:51.433Z,100.00
2019-01-10T06:44:10.992Z,100.00
2019-01-10T06:49:30.707Z,100.00
2019-01-10T06:54:56.575Z,100.00
2019-01-10T07:00:13.101Z,100.00
2019-01-10T07:05:33.173Z,100.00
2019-01-10T07:10:52.536Z,100.00
2019-01-10T07:16:11.673Z,100.00
2019-01-10T07:21:36.677Z,100.00
2019-01-10T07:26:59.805Z,100.00
2019-01-10T07:32:19.710Z,100.00
2019-01-10T07:37:40.587Z,100.00
2019-01-10T07:43:00.644Z,99.96
2019-01-10T07:48:20.301Z,100.00
2019-01-10T07:53:39.549Z,100.00
2019-01-10T07:58:59.279Z,100.00
2019-01-10T08:04:18.841Z,100.00
2019-01-10T08:09:38.939Z,100.00
2019-01-10T08:14:58.693Z,100.00
2019-01-10T08:20:18.328Z,100.00
2019-01-10T08:25:37.788Z,99.92
2019-01-10T08:30:57.557Z,99.83
2019-01-10T08:36:16.737Z,99.70
2019-01-10T08:41:36.529Z,99.70
2019-01-10T08:46:56.367Z,99.57
2019-01-10T08:52:15.640Z,99.54
2019-01-10T08:57:35.060Z,99.25
2019-01-10T09:02:55.287Z,99.25
2019-01-10T09:08:15.151Z,99.17
2019-01-10T09:13:34.349Z,99.07
2019-01-10T09:18:54.827Z,98.82
2019-01-10T09:24:14.708Z,98.79
2019-01-10T09:29:34.676Z,98.72
2019-01-10T09:34:55.417Z,98.63
2019-01-10T09:40:16.569Z,98.56
2019-01-10T09:45:43.047Z,98.48
2019-01-10T09:50:55.716Z,98.38
2019-01-10T09:56:15.681Z,98.15
2019-01-10T10:01:35.264Z,98.11
2019-01-10T10:06:54.960Z,97.97
2019-01-10T10:12:13.950Z,97.94
2019-01-10T10:17:33.532Z,97.77
2019-01-10T10:22:52.504Z,97.66
2019-01-10T10:28:12.137Z,97.39
2019-01-10T10:33:32.045Z,97.39
2019-01-10T10:38:52.105Z,97.38
2019-01-10T10:44:11.812Z,97.38
2019-01-10T10:49:33.289Z,97.42
2019-01-10T10:54:53.743Z,97.57
2019-01-10T11:00:21.895Z,97.59
2019-01-10T11:05:41.727Z,97.57
2019-01-10T11:11:01.308Z,97.60
2019-01-10T11:16:21.129Z,97.60
2019-01-10T11:21:40.364Z,97.46
2019-01-10T11:26:59.676Z,97.49
2019-01-10T11:32:19.163Z,97.50
2019-01-10T11:37:38.680Z,97.42
2019-01-10T11:42:58.626Z,97.44
2019-01-10T11:48:17.644Z,97.49
2019-01-10T11:53:38.435Z,97.47
2019-01-10T11:58:57.571Z,97.48
2019-01-10T12:04:17.004Z,97.16
2019-01-10T12:09:36.145Z,97.45
2019-01-10T12:14:55.564Z,97.36
2019-01-10T12:20:15.728Z,97.40
2019-01-10T12:25:35.662Z,97.38
2019-01-10T12:30:55.196Z,97.48
2019-01-10T12:36:14.753Z,97.69
2019-01-10T12:41:35.962Z,97.72
2019-01-10T12:46:56.796Z,97.63
2019-01-10T12:52:16.357Z,97.63
2019-01-10T12:57:35.776Z,98.02
2019-01-10T13:02:55.955Z,98.13
2019-01-10T13:08:15.411Z,98.11
2019-01-10T13:13:35.358Z,97.63
2019-01-10T13:18:54.655Z,97.62
2019-01-10T13:24:13.736Z,97.57
2019-01-10T13:29:34.501Z,96.87
2019-01-10T13:34:54.712Z,95.83
2019-01-10T13:40:15.795Z,96.62
2019-01-10T13:45:34.018Z,96.97
2019-01-10T13:50:53.950Z,97.01
2019-01-10T13:56:13.438Z,97.11
2019-01-10T14:01:33.745Z,97.12
2019-01-10T14:06:53.791Z,97.21
2019-01-10T14:12:13.136Z,97.22
2019-01-10T14:17:32.837Z,97.43
2019-01-10T14:22:52.779Z,97.06
2019-01-10T14:28:13.461Z,96.67
2019-01-10T14:33:32.334Z,96.58
2019-01-10T14:38:51.967Z,96.58
2019-01-10T14:44:12.376Z,96.58
2019-01-10T14:49:31.261Z,96.66
2019-01-10T14:54:50.431Z,96.58
2019-01-10T15:00:15.603Z,96.58
2019-01-10T15:05:35.542Z,96.24
2019-01-10T15:10:55.420Z,95.93
2019-01-10T15:16:14.788Z,96.14
2019-01-10T15:21:34.870Z,96.20
2019-01-10T15:26:53.892Z,96.16
2019-01-10T15:32:14.018Z,96.28
2019-01-10T15:37:33.536Z,96.51
2019-01-10T15:42:53.533Z,96.47
2019-01-10T15:48:13.170Z,96.53
2019-01-10T15:53:32.390Z,96.13
2019-01-10T15:58:51.764Z,96.24
2019-01-10T16:04:11.809Z,96.34
2019-01-10T16:09:31.201Z,96.09
2019-01-10T16:14:50.630Z,96.05
2019-01-10T16:20:09.821Z,96.10
2019-01-10T16:25:30.832Z,96.15
2019-01-10T16:30:50.503Z,96.33
2019-01-10T16:36:11.107Z,96.11
2019-01-10T16:41:32.035Z,96.11
2019-01-10T16:46:52.194Z,96.14
2019-01-10T16:52:11.681Z,96.14
2019-01-10T16:57:32.120Z,96.01
2019-01-10T17:02:53.091Z,95.25
2019-01-10T17:08:12.361Z,95.25
2019-01-10T17:13:32.392Z,95.33
2019-01-10T17:18:52.245Z,94.97
2019-01-10T17:24:13.504Z,95.40
2019-01-10T17:29:33.256Z,95.50
2019-01-10T17:34:52.932Z,95.62
2019-01-10T17:40:14.666Z,95.65
2019-01-10T17:45:35.741Z,95.78
2019-01-10T17:50:56.275Z,95.22
2019-01-10T17:56:16.269Z,94.76
2019-01-10T18:01:36.711Z,94.63
2019-01-10T18:06:56.961Z,94.89
2019-01-10T18:12:17.905Z,94.97
2019-01-10T18:17:38.679Z,95.34
2019-01-10T18:22:59.458Z,95.53
2019-01-10T18:28:19.208Z,95.84
2019-01-10T18:33:39.011Z,95.84
2019-01-10T18:38:59.131Z,95.96
2019-01-10T18:44:18.528Z,95.93
2019-01-10T18:49:38.463Z,96.05
2019-01-10T18:55:00.321Z,96.04
2019-01-10T19:00:24.560Z,95.97
2019-01-10T19:05:45.439Z,95.85
2019-01-10T19:11:05.736Z,95.82
2019-01-10T19:16:27.540Z,95.28
2019-01-10T19:21:48.024Z,94.90
2019-01-10T19:27:08.810Z,95.12
2019-01-10T19:32:29.656Z,95.19
2019-01-10T19:37:48.960Z,95.26
2019-01-10T19:43:10.005Z,95.57
2019-01-10T19:48:30.412Z,95.62
2019-01-10T19:53:52.121Z,95.73
2019-01-10T19:59:13.187Z,95.84
2019-01-10T20:04:33.837Z,95.99
2019-01-10T20:09:54.116Z,95.39
2019-01-10T20:15:13.759Z,93.73
2019-01-10T20:20:35.896Z,93.69
2019-01-10T20:25:55.370Z,93.87
2019-01-10T20:31:16.866Z,94.32
2019-01-10T20:36:37.352Z,93.67
2019-01-10T20:42:01.793Z,94.12
2019-01-10T20:47:17.741Z,94.17
2019-01-10T20:52:38.248Z,93.08
2019-01-10T20:57:57.932Z,93.80
2019-01-10T21:03:18.460Z,93.30
2019-01-10T21:08:37.958Z,93.68
2019-01-10T21:13:58.942Z,93.56
2019-01-10T21:19:19.244Z,92.58
2019-01-10T21:24:39.458Z,92.90
2019-01-10T21:30:00.474Z,92.45
2019-01-10T21:35:20.878Z,93.44
2019-01-10T21:40:40.816Z,93.14
2019-01-10T21:46:01.407Z,92.87
2019-01-10T21:51:22.016Z,92.58
2019-01-10T21:56:42.490Z,92.10
2019-01-10T22:02:02.689Z,92.62
2019-01-10T22:07:22.841Z,93.25
2019-01-10T22:12:42.348Z,92.88
2019-01-10T22:18:01.996Z,92.89
2019-01-10T22:23:22.284Z,92.52
2019-01-10T22:28:43.620Z,91.14
2019-01-10T22:34:04.172Z,91.60
2019-01-10T22:39:25.403Z,91.42
2019-01-10T22:44:44.635Z,90.33
2019-01-10T22:50:05.252Z,90.72
2019-01-10T22:55:24.704Z,90.62
2019-01-10T23:01:08.989Z,90.07
2019-01-10T23:06:31.879Z,90.05
2019-01-10T23:11:51.915Z,90.33
2019-01-10T23:17:11.002Z,89.46
2019-01-10T23:22:30.866Z,90.08
2019-01-10T23:27:51.942Z,89.19
2019-01-10T23:33:11.688Z,89.24
2019-01-10T23:38:32.169Z,89.69
2019-01-10T23:43:52.673Z,88.54
2019-01-10T23:49:13.252Z,88.92
2019-01-10T23:54:34.237Z,88.71
2019-01-10T23:59:56.706Z,89.92
